Flight Track Log - Related Links

Times and Time Zones

All times are in EDT time to prevent confusion due to time zone crossing. See the N616GB flight status page for this flight to view local times or setup timezone preferences in your user account.

Time Position Orientation Groundspeed Altitude Reporting Facility
EDT Latitude Longitude Course Direction KTS MPH feet Rate Location/Type
Sat 08:05:30 PM 47.4908 -95.0192 199° South 177 204 4,800  Level Minneapolis Center
Sat 08:06:32 PM 47.4381 -95.0406 195° South 193 222 6,700 2,195 Climbing Minneapolis Center
Sat 08:07:33 PM 47.3825 -95.0647 196° South 201 231 9,300 2,262 Climbing Minneapolis Center
Sat 08:08:34 PM 47.3233 -95.0914 197° South 213 245 11,300 1,918 Climbing Minneapolis Center
Sat 08:09:35 PM 47.2642 -95.1197 198° South 220 253 13,200 1,836 Climbing Minneapolis Center
Sat 08:10:00 PM 47.1064 -95.1335 199° South  Level Estimated
Sat 08:10:48 PM 47.1897 -95.1561 198° South 230 265 15,400  Level Minneapolis Center
Sat 08:11:49 PM 47.1164 -95.1914 198° South 232 267 17,300 1,561 Climbing Minneapolis Center
Sat 08:12:51 PM 47.0539 -95.2203 197° South 236 272 18,600 1,220 Climbing Minneapolis Center
Sat 08:13:52 PM 46.9883 -95.2483 196° South 240 276 19,800 1,082 Climbing Minneapolis Center
Sat 08:14:53 PM 46.9197 -95.2811 198° South 254 292 20,800 1,033 Climbing Minneapolis Center
Sat 08:15:54 PM 46.8506 -95.3142 198° South 261 300 21,900 984 Climbing Minneapolis Center
Sat 08:16:55 PM 46.7819 -95.3475 198° South 262 302 22,800 836 Climbing Minneapolis Center
Sat 08:17:56 PM 46.7111 -95.3814 198° South 265 305 23,600 639 Climbing Minneapolis Center
Sat 08:18:57 PM 46.6378 -95.4175 199° South 277 319 24,100 244 Climbing Minneapolis Center
Sat 08:19:59 PM 46.5544 -95.4578 198° South 292 336 24,100 -49 Level Minneapolis Center
Sat 08:21:00 PM 46.4719 -95.4978 198° South 309 356 24,000 -49 Descending Minneapolis Center
Sat 08:22:01 PM 46.3842 -95.5344 196° South 313 360 24,000  Level Minneapolis Center
Sat 08:23:02 PM 46.3011 -95.5711 197° South 311 358 24,000  Level Minneapolis Center
Sat 08:24:03 PM 46.2186 -95.6086 197° South 311 358 24,000  Level Minneapolis Center
Sat 08:25:04 PM 46.1358 -95.6453 197° South 311 358 24,000  Level Minneapolis Center
Sat 08:26:05 PM 46.0367 -95.6900 197° South 311 358 24,000  Level Minneapolis Center
Sat 08:27:07 PM 45.9542 -95.7278 198° South 311 358 24,000  Level Minneapolis Center
Sat 08:28:08 PM 45.8714 -95.7650 197° South 310 357 24,000  Level Minneapolis Center
Sat 08:29:09 PM 45.7889 -95.8025 198° South 312 359 24,000  Level Minneapolis Center
Sat 08:30:10 PM 45.7072 -95.8386 197° South 309 356 24,000  Level Minneapolis Center
Sat 08:31:11 PM 45.6247 -95.8750 197° South 312 359 24,000  Level Minneapolis Center
Sat 08:32:13 PM 45.5428 -95.9125 198° South 310 357 24,000  Level Minneapolis Center
Sat 08:33:26 PM 45.4439 -95.9539 196° South 308 354 24,000  Level Minneapolis Center
Sat 08:34:27 PM 45.3611 -95.9908 197° South 312 359 24,000  Level Minneapolis Center
Sat 08:35:29 PM 45.2642 -96.0317 197° South 305 351 24,000  Level Minneapolis Center
Sat 08:36:30 PM 45.1811 -96.0700 198° South 313 360 24,000  Level Minneapolis Center
Sat 08:37:31 PM 45.0997 -96.1028 196° South 308 354 24,000 -49 Level Minneapolis Center
Sat 08:38:32 PM 45.0189 -96.1381 197° South 306 352 23,900 -585 Descending Minneapolis Center
Sat 08:39:34 PM 44.9325 -96.1733 196° South 315 362 22,800 -1,073 Descending Minneapolis Center
Sat 08:40:35 PM 44.8450 -96.2131 198° South 326 375 21,700 -1,180 Descending Minneapolis Center
Sat 08:41:36 PM 44.7586 -96.2517 198° South 328 377 20,400 -1,268 Descending Minneapolis Center
Sat 08:42:38 PM 44.6728 -96.2897 198° South 325 374 19,100 -1,220 Descending Minneapolis Center
Sat 08:43:39 PM 44.5858 -96.3281 197° South 328 377 17,900 -1,230 Descending Minneapolis Center
Sat 08:44:40 PM 44.4828 -96.3689 196° South 325 374 16,600 -1,366 Descending Minneapolis Center
Sat 08:45:42 PM 44.3972 -96.4036 196° South 324 373 15,100 -1,512 Descending Minneapolis Center
Sat 08:46:43 PM 44.3128 -96.4394 197° South 323 372 13,500 -1,525 Descending Minneapolis Center
Sat 08:47:44 PM 44.2297 -96.4753 197° South 320 368 12,000 -1,366 Descending Minneapolis Center
Sat 08:48:46 PM 44.1489 -96.5117 198° South 315 362 10,700 -1,220 Descending Minneapolis Center
Sat 08:49:47 PM 44.0700 -96.5461 197° South 308 354 9,500 -1,279 Descending Minneapolis Center
Sat 08:50:48 PM 43.9756 -96.5842 196° South 301 346 8,100 -1,366 Descending Minneapolis Center
Sat 08:51:50 PM 43.8992 -96.6153 196° South 296 341 6,700 -1,415 Descending Minneapolis Center
Sat 08:52:51 PM 43.8253 -96.6456 196° South 288 331 5,200 -1,230 Descending Minneapolis Center
Sat 08:53:52 PM 43.7539 -96.6708 194° South 277 319 4,200 -780 Descending Minneapolis Center
Sat 08:54:54 PM 43.6839 -96.6797 185° South 265 305 3,600 -390 Descending Minneapolis Center
Sat 08:55:55 PM 43.6219 -96.6894 186° South 246 283 3,400 -488 Descending Minneapolis Center
Sat 08:56:57 PM 43.5767 -96.6919 182° South 197 227 2,600 -683 Descending Minneapolis Center
Sat 08:57:58 PM 43.5636 -96.7322 246° West 168 193 2,000 -590 Descending Minneapolis Center
Sat 08:59:00 PM 43.5667 -96.7333 180° South  Level FlightAware Approximate
Sat 09:06:00 PM 43.5820 -96.7419 180° South  Level Estimated
Sat 09:07:00 PM 43.5820 -96.7419 180° South  Level Estimated

Login

Don't have an account? Register now (free) for customized features, flight alerts, and more!